Time,TemperatureF,DewpointF,PressureIn,WindDirection,WindDirectionDegrees,WindSpeedMPH,WindSpeedGustMPH,Humidity,HourlyPrecipIn,Conditions,Clouds,dailyrainin,SoftwareType,DateUTC
2014-08-21 00:12:00,61.7,55.1,29.83,WNW,292,2.7,-999.0,79,-99.99,,,0.00,Acu-Link.com,2014-08-21 07:12:00,
2014-08-21 00:28:00,61.7,55.1,29.83,West,270,0.0,-999.0,79,-99.99,,,0.00,Acu-Link.com,2014-08-21 07:28:00,
2014-08-21 00:43:00,61.3,54.7,29.82,West,270,0.0,-999.0,79,-99.99,,,0.00,Acu-Link.com,2014-08-21 07:43:00,
2014-08-21 00:58:00,61.3,54.7,29.82,WNW,292,0.0,-999.0,79,-99.99,,,0.00,Acu-Link.com,2014-08-21 07:58:00,
2014-08-21 01:13:00,60.6,54.7,29.83,SSE,157,0.0,-999.0,81,-99.99,,,0.00,Acu-Link.com,2014-08-21 08:13:00,
2014-08-21 01:28:00,60.6,54.7,29.83,SW,225,0.0,-999.0,81,-99.99,,,0.00,Acu-Link.com,2014-08-21 08:28:00,
2014-08-21 01:43:00,61.0,55.1,29.83,West,270,0.0,-999.0,81,-99.99,,,0.00,Acu-Link.com,2014-08-21 08:43:00,
2014-08-21 01:58:00,60.1,54.2,29.83,NNE,22,0.0,-999.0,81,-99.99,,,0.00,Acu-Link.com,2014-08-21 08:58:00,
2014-08-21 02:13:00,59.7,54.5,29.83,NW,315,0.0,-999.0,83,-99.99,,,0.00,Acu-Link.com,2014-08-21 09:13:00,
2014-08-21 02:28:00,59.5,54.3,29.83,West,270,0.0,-999.0,83,-99.99,,,0.00,Acu-Link.com,2014-08-21 09:28:00,
2014-08-21 02:43:00,59.2,54.4,29.83,NE,45,0.0,-999.0,84,-99.99,,,0.00,Acu-Link.com,2014-08-21 09:43:00,
2014-08-21 02:59:00,58.8,54.3,29.83,SSE,157,0.0,-999.0,85,-99.99,,,0.00,Acu-Link.com,2014-08-21 09:59:00,
2014-08-21 03:14:00,58.8,54.0,29.83,NNW,337,0.0,-999.0,84,-99.99,,,0.00,Acu-Link.com,2014-08-21 10:14:00,
2014-08-21 03:29:00,59.0,54.5,29.84,South,180,1.7,-999.0,85,-99.99,,,0.00,Acu-Link.com,2014-08-21 10:29:00,
2014-08-21 03:44:00,58.6,54.1,29.83,SSE,157,1.7,-999.0,85,-99.99,,,0.00,Acu-Link.com,2014-08-21 10:44:00,
2014-08-21 03:59:00,58.8,54.0,29.83,WSW,247,0.0,-999.0,84,-99.99,,,0.00,Acu-Link.com,2014-08-21 10:59:00,
2014-08-21 04:14:00,59.0,54.2,29.82,South,180,0.0,-999.0,84,-99.99,,,0.00,Acu-Link.com,2014-08-21 11:14:00,
2014-08-21 04:29:00,58.6,53.8,29.82,North,0,0.0,-999.0,84,-99.99,,,0.00,Acu-Link.com,2014-08-21 11:29:00,
2014-08-21 04:44:00,57.9,53.4,29.82,NE,45,0.0,-999.0,85,-99.99,,,0.00,Acu-Link.com,2014-08-21 11:44:00,
2014-08-21 04:59:00,58.3,54.1,29.82,ESE,112,0.0,-999.0,86,-99.99,,,0.00,Acu-Link.com,2014-08-21 11:59:00,
2014-08-21 05:15:00,57.9,53.4,29.82,NNE,22,0.0,-999.0,85,-99.99,,,0.00,Acu-Link.com,2014-08-21 12:15:00,
2014-08-21 05:30:00,58.1,53.6,29.82,NNE,22,0.0,-999.0,85,-99.99,,,0.00,Acu-Link.com,2014-08-21 12:30:00,
2014-08-21 05:45:00,57.7,53.5,29.83,North,0,0.0,-999.0,86,-99.99,,,0.00,Acu-Link.com,2014-08-21 12:45:00,
2014-08-21 06:00:00,57.6,53.4,29.83,NNE,22,0.0,-999.0,86,-99.99,,,0.00,Acu-Link.com,2014-08-21 13:00:00,
2014-08-21 06:15:00,56.8,53.0,29.83,NNE,22,0.0,-999.0,87,-99.99,,,0.00,Acu-Link.com,2014-08-21 13:15:00,
2014-08-21 06:30:00,57.0,53.2,29.84,North,0,0.0,-999.0,87,-99.99,,,0.00,Acu-Link.com,2014-08-21 13:30:00,
2014-08-21 06:46:00,56.8,53.0,29.84,NNW,337,0.0,-999.0,87,-99.99,,,0.00,Acu-Link.com,2014-08-21 13:46:00,
2014-08-21 07:01:00,57.6,53.8,29.85,SW,225,0.0,-999.0,87,-99.99,,,0.00,Acu-Link.com,2014-08-21 14:01:00,
2014-08-21 07:16:00,58.8,54.3,29.85,NNW,337,0.0,-999.0,85,-99.99,,,0.00,Acu-Link.com,2014-08-21 14:16:00,
2014-08-21 07:31:00,59.4,54.6,29.85,NNE,22,0.0,-999.0,84,-99.99,,,0.00,Acu-Link.com,2014-08-21 14:31:00,
2014-08-21 07:46:00,60.3,55.4,29.86,NE,45,0.0,-999.0,84,-99.99,,,0.00,Acu-Link.com,2014-08-21 14:46:00,
2014-08-21 08:01:00,61.5,55.6,29.87,NNE,22,0.0,-999.0,81,-99.99,,,0.00,Acu-Link.com,2014-08-21 15:01:00,
2014-08-21 08:16:00,64.0,55.9,29.87,North,0,0.0,-999.0,75,-99.99,,,0.00,Acu-Link.com,2014-08-21 15:16:00,
2014-08-21 08:31:00,66.2,56.1,29.87,West,270,2.7,-999.0,70,-99.99,,,0.00,Acu-Link.com,2014-08-21 15:31:00,
2014-08-21 08:46:00,68.0,56.6,29.88,SE,135,2.2,-999.0,67,-99.99,,,0.00,Acu-Link.com,2014-08-21 15:46:00,
2014-08-21 09:02:00,69.8,56.6,29.87,NE,45,0.0,-999.0,63,-99.99,,,0.00,Acu-Link.com,2014-08-21 16:02:00,
2014-08-21 09:17:00,70.9,55.8,29.87,NNE,22,0.0,-999.0,59,-99.99,,,0.00,Acu-Link.com,2014-08-21 16:17:00,
2014-08-21 09:32:00,73.0,55.9,29.87,SSW,202,0.0,-999.0,55,-99.99,,,0.00,Acu-Link.com,2014-08-21 16:32:00,
2014-08-21 09:47:00,75.2,56.9,29.87,NE,45,0.0,-999.0,53,-99.99,,,0.00,Acu-Link.com,2014-08-21 16:47:00,
2014-08-21 10:02:00,76.5,57.0,29.87,NE,45,1.7,-999.0,51,-99.99,,,0.00,Acu-Link.com,2014-08-21 17:02:00,
2014-08-21 10:17:00,78.4,56.5,29.87,WSW,247,0.0,-999.0,47,-99.99,,,0.00,Acu-Link.com,2014-08-21 17:17:00,
2014-08-21 10:32:00,81.3,54.6,29.87,East,90,1.1,-999.0,40,-99.99,,,0.00,Acu-Link.com,2014-08-21 17:32:00,
2014-08-21 10:48:00,82.2,56.1,29.87,South,180,1.7,-999.0,41,-99.99,,,0.00,Acu-Link.com,2014-08-21 17:48:00,
2014-08-21 11:03:00,83.7,56.8,29.87,NE,45,0.0,-999.0,40,-99.99,,,0.00,Acu-Link.com,2014-08-21 18:03:00,
2014-08-21 11:18:00,83.8,58.2,29.87,NE,45,2.7,-999.0,42,-99.99,,,0.00,Acu-Link.com,2014-08-21 18:18:00,
2014-08-21 11:33:00,84.4,57.4,29.87,ENE,67,2.7,-999.0,40,-99.99,,,0.00,Acu-Link.com,2014-08-21 18:33:00,
2014-08-21 11:48:00,87.3,57.8,29.87,NE,45,2.7,-999.0,37,-99.99,,,0.00,Acu-Link.com,2014-08-21 18:48:00,
2014-08-21 12:03:00,88.5,57.3,29.87,NE,45,3.2,-999.0,35,-99.99,,,0.00,Acu-Link.com,2014-08-21 19:03:00,
2014-08-21 12:19:00,89.8,56.8,29.86,ENE,67,3.7,-999.0,33,-99.99,,,0.00,Acu-Link.com,2014-08-21 19:19:00,
2014-08-21 12:34:00,90.3,57.3,29.87,NNE,22,3.2,-999.0,33,-99.99,,,0.00,Acu-Link.com,2014-08-21 19:34:00,
2014-08-21 12:49:00,90.7,55.9,29.86,North,0,3.7,-999.0,31,-99.99,,,0.00,Acu-Link.com,2014-08-21 19:49:00,
2014-08-21 13:04:00,91.2,56.3,29.86,NE,45,4.2,-999.0,31,-99.99,,,0.00,Acu-Link.com,2014-08-21 20:04:00,
2014-08-21 13:19:00,92.7,57.6,29.85,ENE,67,4.2,-999.0,31,-99.99,,,0.00,Acu-Link.com,2014-08-21 20:19:00,
2014-08-21 13:34:00,92.1,56.2,29.85,North,0,3.7,-999.0,30,-99.99,,,0.00,Acu-Link.com,2014-08-21 20:34:00,
2014-08-21 13:49:00,93.6,54.5,29.85,NNE,22,3.7,-999.0,27,-99.99,,,0.00,Acu-Link.com,2014-08-21 20:49:00,
2014-08-21 14:04:00,94.3,55.1,29.85,North,0,2.7,-999.0,27,-99.99,,,0.00,Acu-Link.com,2014-08-21 21:04:00,
2014-08-21 14:19:00,93.2,55.2,29.85,NNW,337,2.7,-999.0,28,-99.99,,,0.00,Acu-Link.com,2014-08-21 21:19:00,
2014-08-21 14:35:00,95.0,54.7,29.84,NE,45,4.2,-999.0,26,-99.99,,,0.00,Acu-Link.com,2014-08-21 21:35:00,
2014-08-21 14:50:00,95.4,53.9,29.84,ENE,67,3.7,-999.0,25,-99.99,,,0.00,Acu-Link.com,2014-08-21 21:50:00,
2014-08-21 15:05:00,96.8,54.0,29.83,NE,45,3.2,-999.0,24,-99.99,,,0.00,Acu-Link.com,2014-08-21 22:05:00,
2014-08-21 15:20:00,95.0,53.6,29.83,NNE,22,4.2,-999.0,25,-99.99,,,0.00,Acu-Link.com,2014-08-21 22:20:00,
2014-08-21 15:35:00,95.9,55.4,29.83,NNE,22,5.3,-999.0,26,-99.99,,,0.00,Acu-Link.com,2014-08-21 22:35:00,
2014-08-21 15:50:00,95.0,55.7,29.82,NE,45,2.7,-999.0,27,-99.99,,,0.00,Acu-Link.com,2014-08-21 22:50:00,
2014-08-21 16:05:00,95.5,57.2,29.82,NE,45,3.7,-999.0,28,-99.99,,,0.00,Acu-Link.com,2014-08-21 23:05:00,